Aviation Digital Data Service (ADDS)

Output produced by TAFs form (0205 UTC 26 April 2017)
found at http://www.aviationweather.gov/adds/tafs/
 
KRIC 260024Z 2600/2624 02010KT P6SM VCSH BKN007 OVC023 
     TEMPO 2600/2603 3SM -RA BR OVC005 
     FM261000 31005KT 2SM BR OVC008 
     FM261400 31006KT P6SM BKN015 
     FM261600 31006KT P6SM BKN020